sensor_id;sensor_type;location;lat;lon;timestamp;P1;durP1;ratioP1;P2;durP2;ratioP2
39502;SDS011;26970;49.900;10.774;2022-12-13T00:00:36;32.20;;;15.93;;
39502;SDS011;26970;49.900;10.774;2022-12-13T00:03:02;40.53;;;17.95;;
39502;SDS011;26970;49.900;10.774;2022-12-13T00:05:27;32.28;;;15.73;;
39502;SDS011;26970;49.900;10.774;2022-12-13T00:07:53;33.47;;;14.73;;
39502;SDS011;26970;49.900;10.774;2022-12-13T00:10:19;38.72;;;17.05;;
39502;SDS011;26970;49.900;10.774;2022-12-13T00:12:44;36.05;;;17.10;;
39502;SDS011;26970;49.900;10.774;2022-12-13T00:15:10;35.58;;;16.20;;
39502;SDS011;26970;49.900;10.774;2022-12-13T00:17:36;34.80;;;16.05;;
39502;SDS011;26970;49.900;10.774;2022-12-13T00:20:02;36.80;;;15.82;;
39502;SDS011;26970;49.900;10.774;2022-12-13T00:22:28;38.90;;;18.27;;
39502;SDS011;26970;49.900;10.774;2022-12-13T00:24:54;43.50;;;19.67;;
39502;SDS011;26970;49.900;10.774;2022-12-13T00:27:20;40.15;;;18.63;;
39502;SDS011;26970;49.900;10.774;2022-12-13T00:29:46;37.53;;;17.42;;
39502;SDS011;26970;49.900;10.774;2022-12-13T00:32:12;40.50;;;17.35;;
39502;SDS011;26970;49.900;10.774;2022-12-13T00:34:37;38.42;;;17.55;;
39502;SDS011;26970;49.900;10.774;2022-12-13T00:37:03;41.70;;;17.33;;
39502;SDS011;26970;49.900;10.774;2022-12-13T00:39:28;39.72;;;16.50;;
39502;SDS011;26970;49.900;10.774;2022-12-13T00:41:54;32.13;;;14.88;;
39502;SDS011;26970;49.900;10.774;2022-12-13T00:44:20;38.83;;;16.25;;
39502;SDS011;26970;49.900;10.774;2022-12-13T00:46:46;36.58;;;16.02;;
39502;SDS011;26970;49.900;10.774;2022-12-13T00:49:11;36.95;;;15.60;;
39502;SDS011;26970;49.900;10.774;2022-12-13T00:51:38;40.47;;;18.95;;
39502;SDS011;26970;49.900;10.774;2022-12-13T00:54:04;33.83;;;15.13;;
39502;SDS011;26970;49.900;10.774;2022-12-13T00:56:30;43.92;;;16.02;;
39502;SDS011;26970;49.900;10.774;2022-12-13T00:58:56;32.08;;;14.13;;
39502;SDS011;26970;49.900;10.774;2022-12-13T01:01:27;27.70;;;14.20;;
39502;SDS011;26970;49.900;10.774;2022-12-13T01:03:54;28.53;;;14.07;;
39502;SDS011;26970;49.900;10.774;2022-12-13T01:06:26;32.95;;;15.55;;
39502;SDS011;26970;49.900;10.774;2022-12-13T01:09:03;33.85;;;15.82;;
39502;SDS011;26970;49.900;10.774;2022-12-13T01:11:31;31.30;;;14.93;;
39502;SDS011;26970;49.900;10.774;2022-12-13T01:13:57;35.55;;;14.63;;
39502;SDS011;26970;49.900;10.774;2022-12-13T01:16:22;30.20;;;13.65;;
39502;SDS011;26970;49.900;10.774;2022-12-13T01:18:48;33.15;;;14.55;;
39502;SDS011;26970;49.900;10.774;2022-12-13T01:21:14;34.10;;;14.15;;
39502;SDS011;26970;49.900;10.774;2022-12-13T01:23:42;30.10;;;14.57;;
39502;SDS011;26970;49.900;10.774;2022-12-13T01:26:09;33.28;;;14.73;;
39502;SDS011;26970;49.900;10.774;2022-12-13T01:28:39;34.38;;;15.18;;
39502;SDS011;26970;49.900;10.774;2022-12-13T01:31:09;31.33;;;14.55;;
39502;SDS011;26970;49.900;10.774;2022-12-13T01:33:36;29.80;;;13.50;;
39502;SDS011;26970;49.900;10.774;2022-12-13T01:36:03;35.20;;;14.15;;
39502;SDS011;26970;49.900;10.774;2022-12-13T01:38:30;34.65;;;15.52;;
39502;SDS011;26970;49.900;10.774;2022-12-13T01:40:56;35.20;;;14.63;;
39502;SDS011;26970;49.900;10.774;2022-12-13T01:43:23;35.08;;;15.13;;
39502;SDS011;26970;49.900;10.774;2022-12-13T01:45:50;29.20;;;14.35;;
39502;SDS011;26970;49.900;10.774;2022-12-13T01:48:16;28.50;;;13.43;;
39502;SDS011;26970;49.900;10.774;2022-12-13T01:50:47;27.75;;;13.10;;
39502;SDS011;26970;49.900;10.774;2022-12-13T01:53:18;37.72;;;14.20;;
39502;SDS011;26970;49.900;10.774;2022-12-13T01:55:48;29.00;;;15.30;;
39502;SDS011;26970;49.900;10.774;2022-12-13T01:58:18;39.03;;;16.60;;
39502;SDS011;26970;49.900;10.774;2022-12-13T02:00:45;31.60;;;14.90;;
39502;SDS011;26970;49.900;10.774;2022-12-13T02:03:12;39.67;;;14.57;;
39502;SDS011;26970;49.900;10.774;2022-12-13T02:05:40;37.35;;;15.88;;
39502;SDS011;26970;49.900;10.774;2022-12-13T02:08:15;29.38;;;14.15;;
39502;SDS011;26970;49.900;10.774;2022-12-13T02:10:41;33.92;;;15.80;;
39502;SDS011;26970;49.900;10.774;2022-12-13T02:13:08;32.88;;;14.75;;
39502;SDS011;26970;49.900;10.774;2022-12-13T02:15:37;31.90;;;14.80;;
39502;SDS011;26970;49.900;10.774;2022-12-13T02:18:18;33.15;;;14.50;;
39502;SDS011;26970;49.900;10.774;2022-12-13T02:21:29;29.27;;;14.43;;
39502;SDS011;26970;49.900;10.774;2022-12-13T02:30:20;30.90;;;13.38;;
39502;SDS011;26970;49.900;10.774;2022-12-13T02:35:45;32.05;;;14.25;;
39502;SDS011;26970;49.900;10.774;2022-12-13T02:40:51;30.05;;;14.15;;
39502;SDS011;26970;49.900;10.774;2022-12-13T02:43:22;35.53;;;15.43;;
39502;SDS011;26970;49.900;10.774;2022-12-13T02:45:53;30.80;;;14.68;;
39502;SDS011;26970;49.900;10.774;2022-12-13T02:48:24;31.98;;;14.38;;
39502;SDS011;26970;49.900;10.774;2022-12-13T02:50:52;37.60;;;15.50;;
39502;SDS011;26970;49.900;10.774;2022-12-13T02:53:19;36.17;;;14.80;;
39502;SDS011;26970;49.900;10.774;2022-12-13T02:55:47;27.50;;;12.82;;
39502;SDS011;26970;49.900;10.774;2022-12-13T02:58:13;37.47;;;13.65;;
39502;SDS011;26970;49.900;10.774;2022-12-13T03:15:41;32.38;;;14.95;;
39502;SDS011;26970;49.900;10.774;2022-12-13T03:17:42;34.53;;;14.57;;
39502;SDS011;26970;49.900;10.774;2022-12-13T03:20:14;35.83;;;14.75;;
39502;SDS011;26970;49.900;10.774;2022-12-13T03:22:42;33.42;;;14.30;;
39502;SDS011;26970;49.900;10.774;2022-12-13T03:25:08;34.05;;;15.18;;
39502;SDS011;26970;49.900;10.774;2022-12-13T03:27:33;34.67;;;14.38;;
39502;SDS011;26970;49.900;10.774;2022-12-13T03:29:59;35.03;;;14.80;;
39502;SDS011;26970;49.900;10.774;2022-12-13T03:32:25;36.53;;;14.10;;
39502;SDS011;26970;49.900;10.774;2022-12-13T03:34:50;29.60;;;13.98;;
39502;SDS011;26970;49.900;10.774;2022-12-13T03:37:16;31.45;;;13.52;;
39502;SDS011;26970;49.900;10.774;2022-12-13T03:39:42;34.33;;;14.93;;
39502;SDS011;26970;49.900;10.774;2022-12-13T03:42:07;35.25;;;15.15;;
39502;SDS011;26970;49.900;10.774;2022-12-13T03:44:33;33.80;;;15.00;;
39502;SDS011;26970;49.900;10.774;2022-12-13T03:46:58;30.27;;;14.15;;
39502;SDS011;26970;49.900;10.774;2022-12-13T03:49:24;29.90;;;14.07;;
39502;SDS011;26970;49.900;10.774;2022-12-13T03:51:49;32.55;;;14.30;;
39502;SDS011;26970;49.900;10.774;2022-12-13T03:54:15;28.15;;;12.77;;
39502;SDS011;26970;49.900;10.774;2022-12-13T03:56:40;28.35;;;13.63;;
39502;SDS011;26970;49.900;10.774;2022-12-13T03:59:06;28.17;;;13.57;;
39502;SDS011;26970;49.900;10.774;2022-12-13T04:01:32;31.48;;;14.90;;
39502;SDS011;26970;49.900;10.774;2022-12-13T04:03:57;31.70;;;14.77;;
39502;SDS011;26970;49.900;10.774;2022-12-13T04:06:23;30.92;;;14.95;;
39502;SDS011;26970;49.900;10.774;2022-12-13T04:08:48;29.52;;;12.88;;
39502;SDS011;26970;49.900;10.774;2022-12-13T04:11:15;32.75;;;15.18;;
39502;SDS011;26970;49.900;10.774;2022-12-13T04:13:59;35.33;;;15.45;;
39502;SDS011;26970;49.900;10.774;2022-12-13T04:16:25;31.92;;;14.02;;
39502;SDS011;26970;49.900;10.774;2022-12-13T04:18:50;34.97;;;14.55;;
39502;SDS011;26970;49.900;10.774;2022-12-13T04:21:16;34.03;;;14.98;;
39502;SDS011;26970;49.900;10.774;2022-12-13T04:23:41;34.72;;;13.77;;
39502;SDS011;26970;49.900;10.774;2022-12-13T04:26:07;31.95;;;13.90;;
39502;SDS011;26970;49.900;10.774;2022-12-13T04:28:32;41.60;;;17.58;;
39502;SDS011;26970;49.900;10.774;2022-12-13T04:30:58;30.55;;;14.95;;
39502;SDS011;26970;49.900;10.774;2022-12-13T04:33:23;38.35;;;14.80;;
39502;SDS011;26970;49.900;10.774;2022-12-13T04:35:49;33.75;;;15.18;;
39502;SDS011;26970;49.900;10.774;2022-12-13T04:38:15;33.92;;;13.35;;
39502;SDS011;26970;49.900;10.774;2022-12-13T04:40:41;31.95;;;13.50;;
39502;SDS011;26970;49.900;10.774;2022-12-13T04:43:07;28.92;;;12.18;;
39502;SDS011;26970;49.900;10.774;2022-12-13T04:45:32;29.35;;;13.23;;
39502;SDS011;26970;49.900;10.774;2022-12-13T04:47:58;32.53;;;13.65;;
39502;SDS011;26970;49.900;10.774;2022-12-13T04:50:23;31.00;;;12.57;;
39502;SDS011;26970;49.900;10.774;2022-12-13T04:52:49;32.42;;;13.35;;
39502;SDS011;26970;49.900;10.774;2022-12-13T04:55:14;35.25;;;13.55;;
39502;SDS011;26970;49.900;10.774;2022-12-13T04:57:40;33.90;;;13.35;;
39502;SDS011;26970;49.900;10.774;2022-12-13T05:00:07;40.53;;;15.27;;
39502;SDS011;26970;49.900;10.774;2022-12-13T05:02:36;37.25;;;15.27;;
39502;SDS011;26970;49.900;10.774;2022-12-13T05:05:02;37.58;;;14.98;;
39502;SDS011;26970;49.900;10.774;2022-12-13T05:07:27;38.92;;;16.75;;
39502;SDS011;26970;49.900;10.774;2022-12-13T05:09:53;45.60;;;17.17;;
39502;SDS011;26970;49.900;10.774;2022-12-13T05:12:19;34.97;;;15.35;;
39502;SDS011;26970;49.900;10.774;2022-12-13T05:14:44;41.28;;;14.93;;
39502;SDS011;26970;49.900;10.774;2022-12-13T05:17:10;35.05;;;15.18;;
39502;SDS011;26970;49.900;10.774;2022-12-13T05:19:35;35.33;;;15.35;;
39502;SDS011;26970;49.900;10.774;2022-12-13T05:22:01;43.15;;;16.92;;
39502;SDS011;26970;49.900;10.774;2022-12-13T05:24:26;39.92;;;15.70;;
39502;SDS011;26970;49.900;10.774;2022-12-13T05:26:52;40.17;;;15.60;;
39502;SDS011;26970;49.900;10.774;2022-12-13T05:29:17;45.70;;;16.73;;
39502;SDS011;26970;49.900;10.774;2022-12-13T05:31:43;33.72;;;15.63;;
39502;SDS011;26970;49.900;10.774;2022-12-13T05:34:09;47.70;;;18.02;;
39502;SDS011;26970;49.900;10.774;2022-12-13T05:36:34;42.53;;;16.95;;
39502;SDS011;26970;49.900;10.774;2022-12-13T05:39:00;40.08;;;16.77;;
39502;SDS011;26970;49.900;10.774;2022-12-13T05:41:26;41.45;;;15.10;;
39502;SDS011;26970;49.900;10.774;2022-12-13T05:43:57;35.42;;;15.10;;
39502;SDS011;26970;49.900;10.774;2022-12-13T05:46:22;40.47;;;19.02;;
39502;SDS011;26970;49.900;10.774;2022-12-13T05:48:48;48.53;;;20.88;;
39502;SDS011;26970;49.900;10.774;2022-12-13T05:51:13;44.65;;;19.30;;
39502;SDS011;26970;49.900;10.774;2022-12-13T05:53:39;41.47;;;18.85;;
39502;SDS011;26970;49.900;10.774;2022-12-13T05:56:06;34.65;;;16.08;;
39502;SDS011;26970;49.900;10.774;2022-12-13T05:58:32;38.42;;;15.70;;
39502;SDS011;26970;49.900;10.774;2022-12-13T06:01:12;30.35;;;14.00;;
39502;SDS011;26970;49.900;10.774;2022-12-13T06:03:39;42.58;;;15.27;;
39502;SDS011;26970;49.900;10.774;2022-12-13T06:06:06;35.03;;;14.68;;
39502;SDS011;26970;49.900;10.774;2022-12-13T06:08:33;37.92;;;14.55;;
39502;SDS011;26970;49.900;10.774;2022-12-13T06:11:00;30.88;;;12.13;;
39502;SDS011;26970;49.900;10.774;2022-12-13T06:13:26;39.83;;;15.27;;
39502;SDS011;26970;49.900;10.774;2022-12-13T06:15:52;30.52;;;13.27;;
39502;SDS011;26970;49.900;10.774;2022-12-13T06:18:19;29.92;;;13.68;;
39502;SDS011;26970;49.900;10.774;2022-12-13T06:20:45;32.50;;;13.73;;
39502;SDS011;26970;49.900;10.774;2022-12-13T06:23:20;30.35;;;12.70;;
39502;SDS011;26970;49.900;10.774;2022-12-13T06:25:45;33.80;;;12.95;;
39502;SDS011;26970;49.900;10.774;2022-12-13T06:28:11;30.50;;;12.98;;
39502;SDS011;26970;49.900;10.774;2022-12-13T06:30:36;34.85;;;12.68;;
39502;SDS011;26970;49.900;10.774;2022-12-13T06:33:02;38.25;;;14.10;;
39502;SDS011;26970;49.900;10.774;2022-12-13T06:35:27;32.08;;;14.35;;
39502;SDS011;26970;49.900;10.774;2022-12-13T06:37:53;31.60;;;13.35;;
39502;SDS011;26970;49.900;10.774;2022-12-13T06:40:18;23.02;;;11.65;;
39502;SDS011;26970;49.900;10.774;2022-12-13T06:42:44;29.30;;;12.27;;
39502;SDS011;26970;49.900;10.774;2022-12-13T06:45:10;32.50;;;13.82;;
39502;SDS011;26970;49.900;10.774;2022-12-13T06:47:35;30.25;;;12.90;;
39502;SDS011;26970;49.900;10.774;2022-12-13T06:50:01;29.25;;;13.15;;
39502;SDS011;26970;49.900;10.774;2022-12-13T06:52:27;31.92;;;14.13;;
39502;SDS011;26970;49.900;10.774;2022-12-13T06:54:52;32.75;;;13.65;;
39502;SDS011;26970;49.900;10.774;2022-12-13T06:57:18;30.00;;;13.35;;
39502;SDS011;26970;49.900;10.774;2022-12-13T06:59:43;31.02;;;13.52;;
39502;SDS011;26970;49.900;10.774;2022-12-13T07:02:09;25.95;;;12.75;;
39502;SDS011;26970;49.900;10.774;2022-12-13T07:04:35;33.50;;;15.30;;
39502;SDS011;26970;49.900;10.774;2022-12-13T07:07:00;39.67;;;15.88;;
39502;SDS011;26970;49.900;10.774;2022-12-13T07:09:26;33.58;;;15.15;;
39502;SDS011;26970;49.900;10.774;2022-12-13T07:11:52;40.30;;;17.85;;
39502;SDS011;26970;49.900;10.774;2022-12-13T07:14:18;40.03;;;18.20;;
39502;SDS011;26970;49.900;10.774;2022-12-13T07:16:44;31.10;;;16.08;;
39502;SDS011;26970;49.900;10.774;2022-12-13T07:19:09;34.72;;;14.23;;
39502;SDS011;26970;49.900;10.774;2022-12-13T07:21:35;36.38;;;15.20;;
39502;SDS011;26970;49.900;10.774;2022-12-13T07:24:02;33.65;;;14.68;;
39502;SDS011;26970;49.900;10.774;2022-12-13T07:26:28;33.83;;;15.27;;
39502;SDS011;26970;49.900;10.774;2022-12-13T07:28:53;49.85;;;18.40;;
39502;SDS011;26970;49.900;10.774;2022-12-13T07:31:19;41.85;;;16.35;;
39502;SDS011;26970;49.900;10.774;2022-12-13T07:33:44;34.95;;;14.70;;
39502;SDS011;26970;49.900;10.774;2022-12-13T07:36:11;40.33;;;15.95;;
39502;SDS011;26970;49.900;10.774;2022-12-13T07:38:38;39.13;;;15.52;;
39502;SDS011;26970;49.900;10.774;2022-12-13T07:41:04;35.72;;;15.43;;
39502;SDS011;26970;49.900;10.774;2022-12-13T07:43:31;47.67;;;17.73;;
39502;SDS011;26970;49.900;10.774;2022-12-13T07:45:57;44.55;;;16.70;;
39502;SDS011;26970;49.900;10.774;2022-12-13T07:48:24;32.47;;;14.93;;
39502;SDS011;26970;49.900;10.774;2022-12-13T07:50:50;43.63;;;16.48;;
39502;SDS011;26970;49.900;10.774;2022-12-13T07:53:16;31.60;;;15.43;;
39502;SDS011;26970;49.900;10.774;2022-12-13T07:55:42;31.92;;;14.30;;
39502;SDS011;26970;49.900;10.774;2022-12-13T07:58:11;41.20;;;15.32;;
39502;SDS011;26970;49.900;10.774;2022-12-13T08:00:38;22.80;;;12.20;;
39502;SDS011;26970;49.900;10.774;2022-12-13T08:03:05;33.88;;;14.75;;
39502;SDS011;26970;49.900;10.774;2022-12-13T08:05:31;36.58;;;14.90;;
39502;SDS011;26970;49.900;10.774;2022-12-13T08:08:01;31.77;;;14.02;;
39502;SDS011;26970;49.900;10.774;2022-12-13T08:10:27;30.05;;;13.57;;
39502;SDS011;26970;49.900;10.774;2022-12-13T08:12:53;39.72;;;14.73;;
39502;SDS011;26970;49.900;10.774;2022-12-13T08:15:19;39.80;;;15.13;;
39502;SDS011;26970;49.900;10.774;2022-12-13T08:17:45;34.25;;;13.95;;
39502;SDS011;26970;49.900;10.774;2022-12-13T08:20:11;38.53;;;15.90;;
39502;SDS011;26970;49.900;10.774;2022-12-13T08:22:37;43.38;;;17.33;;
39502;SDS011;26970;49.900;10.774;2022-12-13T08:25:03;34.92;;;16.33;;
39502;SDS011;26970;49.900;10.774;2022-12-13T08:27:29;43.67;;;16.88;;
39502;SDS011;26970;49.900;10.774;2022-12-13T08:29:54;43.08;;;17.23;;
39502;SDS011;26970;49.900;10.774;2022-12-13T08:32:20;46.47;;;18.70;;
39502;SDS011;26970;49.900;10.774;2022-12-13T08:34:46;53.05;;;18.73;;
39502;SDS011;26970;49.900;10.774;2022-12-13T08:37:12;34.28;;;16.52;;
39502;SDS011;26970;49.900;10.774;2022-12-13T08:39:38;49.67;;;21.42;;
39502;SDS011;26970;49.900;10.774;2022-12-13T08:42:10;58.88;;;24.67;;
39502;SDS011;26970;49.900;10.774;2022-12-13T08:44:38;45.47;;;20.00;;
39502;SDS011;26970;49.900;10.774;2022-12-13T08:47:03;44.22;;;19.60;;
39502;SDS011;26970;49.900;10.774;2022-12-13T08:49:29;32.85;;;16.73;;
39502;SDS011;26970;49.900;10.774;2022-12-13T08:51:54;34.95;;;16.75;;
39502;SDS011;26970;49.900;10.774;2022-12-13T08:54:20;32.00;;;15.60;;
39502;SDS011;26970;49.900;10.774;2022-12-13T08:56:46;29.02;;;12.00;;
39502;SDS011;26970;49.900;10.774;2022-12-13T08:59:11;26.65;;;13.50;;
39502;SDS011;26970;49.900;10.774;2022-12-13T09:01:37;31.83;;;14.27;;
39502;SDS011;26970;49.900;10.774;2022-12-13T09:04:02;30.77;;;11.27;;
39502;SDS011;26970;49.900;10.774;2022-12-13T09:06:28;33.83;;;13.65;;
39502;SDS011;26970;49.900;10.774;2022-12-13T09:08:54;28.08;;;12.63;;
39502;SDS011;26970;49.900;10.774;2022-12-13T09:11:19;26.60;;;12.40;;
39502;SDS011;26970;49.900;10.774;2022-12-13T09:13:45;26.80;;;12.48;;
39502;SDS011;26970;49.900;10.774;2022-12-13T09:16:12;30.83;;;14.00;;
39502;SDS011;26970;49.900;10.774;2022-12-13T09:18:40;32.78;;;13.20;;
39502;SDS011;26970;49.900;10.774;2022-12-13T09:21:09;35.38;;;15.27;;
39502;SDS011;26970;49.900;10.774;2022-12-13T09:23:36;37.95;;;16.65;;
39502;SDS011;26970;49.900;10.774;2022-12-13T09:26:02;30.65;;;14.00;;
39502;SDS011;26970;49.900;10.774;2022-12-13T09:28:28;35.70;;;15.57;;
39502;SDS011;26970;49.900;10.774;2022-12-13T09:30:54;34.40;;;14.40;;
39502;SDS011;26970;49.900;10.774;2022-12-13T09:33:21;33.63;;;14.35;;
39502;SDS011;26970;49.900;10.774;2022-12-13T09:35:47;32.72;;;14.43;;
39502;SDS011;26970;49.900;10.774;2022-12-13T09:38:12;33.42;;;14.07;;
39502;SDS011;26970;49.900;10.774;2022-12-13T09:40:38;33.22;;;14.50;;
39502;SDS011;26970;49.900;10.774;2022-12-13T09:43:09;31.83;;;14.70;;
39502;SDS011;26970;49.900;10.774;2022-12-13T09:45:41;37.13;;;18.35;;
39502;SDS011;26970;49.900;10.774;2022-12-13T09:48:10;36.92;;;15.85;;
39502;SDS011;26970;49.900;10.774;2022-12-13T09:50:41;25.77;;;11.82;;
39502;SDS011;26970;49.900;10.774;2022-12-13T09:53:07;34.03;;;13.48;;
39502;SDS011;26970;49.900;10.774;2022-12-13T09:55:37;30.20;;;14.40;;
39502;SDS011;26970;49.900;10.774;2022-12-13T09:58:07;20.55;;;11.13;;
39502;SDS011;26970;49.900;10.774;2022-12-13T10:00:37;27.50;;;13.55;;
39502;SDS011;26970;49.900;10.774;2022-12-13T10:03:03;29.67;;;13.95;;
39502;SDS011;26970;49.900;10.774;2022-12-13T10:05:33;39.70;;;17.50;;
39502;SDS011;26970;49.900;10.774;2022-12-13T10:08:44;33.58;;;15.02;;
39502;SDS011;26970;49.900;10.774;2022-12-13T10:10:59;28.48;;;12.43;;
39502;SDS011;26970;49.900;10.774;2022-12-13T10:13:38;26.50;;;12.65;;
39502;SDS011;26970;49.900;10.774;2022-12-13T10:16:25;29.95;;;13.40;;
39502;SDS011;26970;49.900;10.774;2022-12-13T10:19:14;32.55;;;15.75;;
39502;SDS011;26970;49.900;10.774;2022-12-13T10:21:41;22.65;;;11.00;;
39502;SDS011;26970;49.900;10.774;2022-12-13T10:26:41;37.47;;;17.23;;
39502;SDS011;26970;49.900;10.774;2022-12-13T10:29:07;29.25;;;14.68;;
39502;SDS011;26970;49.900;10.774;2022-12-13T10:31:40;26.35;;;13.68;;
39502;SDS011;26970;49.900;10.774;2022-12-13T10:36:54;26.63;;;12.70;;
39502;SDS011;26970;49.900;10.774;2022-12-13T10:39:39;29.35;;;12.73;;
39502;SDS011;26970;49.900;10.774;2022-12-13T10:42:17;24.83;;;12.38;;
39502;SDS011;26970;49.900;10.774;2022-12-13T10:44:44;28.20;;;13.88;;
39502;SDS011;26970;49.900;10.774;2022-12-13T10:49:51;34.03;;;15.27;;
39502;SDS011;26970;49.900;10.774;2022-12-13T10:52:34;31.45;;;15.02;;
39502;SDS011;26970;49.900;10.774;2022-12-13T10:55:20;24.38;;;13.15;;
39502;SDS011;26970;49.900;10.774;2022-12-13T10:57:54;24.58;;;12.77;;
39502;SDS011;26970;49.900;10.774;2022-12-13T11:03:30;28.48;;;12.55;;
39502;SDS011;26970;49.900;10.774;2022-12-13T11:06:13;23.80;;;12.32;;
39502;SDS011;26970;49.900;10.774;2022-12-13T11:08:40;32.20;;;13.85;;
39502;SDS011;26970;49.900;10.774;2022-12-13T11:11:06;26.90;;;13.30;;
39502;SDS011;26970;49.900;10.774;2022-12-13T11:16:54;24.13;;;12.80;;
39502;SDS011;26970;49.900;10.774;2022-12-13T11:19:19;26.40;;;12.18;;
39502;SDS011;26970;49.900;10.774;2022-12-13T11:21:48;23.52;;;11.48;;
39502;SDS011;26970;49.900;10.774;2022-12-13T11:24:20;24.02;;;12.38;;
39502;SDS011;26970;49.900;10.774;2022-12-13T11:26:55;23.02;;;11.05;;
39502;SDS011;26970;49.900;10.774;2022-12-13T11:29:31;21.33;;;11.45;;
39502;SDS011;26970;49.900;10.774;2022-12-13T11:32:13;21.58;;;9.73;;
39502;SDS011;26970;49.900;10.774;2022-12-13T11:37:44;15.70;;;8.27;;
39502;SDS011;26970;49.900;10.774;2022-12-13T11:40:18;19.05;;;9.00;;
39502;SDS011;26970;49.900;10.774;2022-12-13T11:42:53;20.83;;;9.55;;
39502;SDS011;26970;49.900;10.774;2022-12-13T11:45:30;17.05;;;9.68;;
39502;SDS011;26970;49.900;10.774;2022-12-13T11:50:34;15.70;;;8.57;;
39502;SDS011;26970;49.900;10.774;2022-12-13T11:55:56;19.00;;;9.00;;
39502;SDS011;26970;49.900;10.774;2022-12-13T11:58:31;19.33;;;9.80;;
39502;SDS011;26970;49.900;10.774;2022-12-13T12:01:11;16.25;;;8.80;;
39502;SDS011;26970;49.900;10.774;2022-12-13T12:03:41;15.85;;;8.95;;
39502;SDS011;26970;49.900;10.774;2022-12-13T12:06:17;17.35;;;9.43;;
39502;SDS011;26970;49.900;10.774;2022-12-13T12:08:56;18.40;;;9.55;;
39502;SDS011;26970;49.900;10.774;2022-12-13T12:16:56;22.15;;;10.82;;
39502;SDS011;26970;49.900;10.774;2022-12-13T12:19:33;17.77;;;10.27;;
39502;SDS011;26970;49.900;10.774;2022-12-13T12:24:56;16.73;;;8.52;;
39502;SDS011;26970;49.900;10.774;2022-12-13T12:38:29;16.50;;;8.77;;
39502;SDS011;26970;49.900;10.774;2022-12-13T12:41:07;14.82;;;8.30;;
39502;SDS011;26970;49.900;10.774;2022-12-13T12:43:38;14.65;;;7.95;;
39502;SDS011;26970;49.900;10.774;2022-12-13T12:51:36;16.33;;;8.80;;
39502;SDS011;26970;49.900;10.774;2022-12-13T12:54:24;17.90;;;8.95;;
39502;SDS011;26970;49.900;10.774;2022-12-13T12:59:57;19.52;;;9.30;;
39502;SDS011;26970;49.900;10.774;2022-12-13T13:02:50;20.15;;;9.48;;
39502;SDS011;26970;49.900;10.774;2022-12-13T13:05:42;19.00;;;9.07;;
39502;SDS011;26970;49.900;10.774;2022-12-13T13:08:22;19.05;;;9.55;;
39502;SDS011;26970;49.900;10.774;2022-12-13T13:10:51;18.00;;;9.45;;
39502;SDS011;26970;49.900;10.774;2022-12-13T13:15:56;17.42;;;9.82;;
39502;SDS011;26970;49.900;10.774;2022-12-13T13:23:47;23.92;;;9.98;;
39502;SDS011;26970;49.900;10.774;2022-12-13T13:26:28;20.95;;;9.70;;
39502;SDS011;26970;49.900;10.774;2022-12-13T13:29:40;21.45;;;10.15;;
39502;SDS011;26970;49.900;10.774;2022-12-13T13:32:32;15.90;;;9.00;;
39502;SDS011;26970;49.900;10.774;2022-12-13T13:42:18;17.50;;;10.02;;
39502;SDS011;26970;49.900;10.774;2022-12-13T13:47:28;21.00;;;10.15;;
39502;SDS011;26970;49.900;10.774;2022-12-13T13:52:36;16.87;;;9.57;;
39502;SDS011;26970;49.900;10.774;2022-12-13T13:58:15;18.40;;;9.93;;
39502;SDS011;26970;49.900;10.774;2022-12-13T14:01:09;17.98;;;9.15;;
39502;SDS011;26970;49.900;10.774;2022-12-13T14:06:43;19.10;;;9.90;;
39502;SDS011;26970;49.900;10.774;2022-12-13T14:24:00;29.17;;;12.50;;
39502;SDS011;26970;49.900;10.774;2022-12-13T14:26:57;25.52;;;13.18;;
39502;SDS011;26970;49.900;10.774;2022-12-13T14:29:28;27.42;;;12.27;;
39502;SDS011;26970;49.900;10.774;2022-12-13T14:31:57;24.88;;;13.63;;
39502;SDS011;26970;49.900;10.774;2022-12-13T14:34:27;24.75;;;13.02;;
39502;SDS011;26970;49.900;10.774;2022-12-13T14:36:55;25.13;;;13.05;;
39502;SDS011;26970;49.900;10.774;2022-12-13T14:39:24;26.98;;;12.73;;
39502;SDS011;26970;49.900;10.774;2022-12-13T14:41:53;23.38;;;13.13;;
39502;SDS011;26970;49.900;10.774;2022-12-13T14:47:00;30.40;;;14.23;;
39502;SDS011;26970;49.900;10.774;2022-12-13T14:49:27;32.25;;;14.60;;
39502;SDS011;26970;49.900;10.774;2022-12-13T14:54:49;34.22;;;14.15;;
39502;SDS011;26970;49.900;10.774;2022-12-13T14:57:22;70.60;;;23.40;;
39502;SDS011;26970;49.900;10.774;2022-12-13T14:59:50;47.15;;;15.90;;
39502;SDS011;26970;49.900;10.774;2022-12-13T15:02:19;30.77;;;13.27;;
39502;SDS011;26970;49.900;10.774;2022-12-13T15:04:59;31.85;;;15.25;;
39502;SDS011;26970;49.900;10.774;2022-12-13T15:07:34;26.90;;;13.05;;
39502;SDS011;26970;49.900;10.774;2022-12-13T15:10:03;25.00;;;12.70;;
39502;SDS011;26970;49.900;10.774;2022-12-13T15:12:45;26.08;;;13.73;;
39502;SDS011;26970;49.900;10.774;2022-12-13T15:15:45;28.25;;;13.30;;
39502;SDS011;26970;49.900;10.774;2022-12-13T15:18:22;29.42;;;13.30;;
39502;SDS011;26970;49.900;10.774;2022-12-13T15:20:49;28.27;;;13.75;;
39502;SDS011;26970;49.900;10.774;2022-12-13T15:28:36;29.13;;;13.63;;
39502;SDS011;26970;49.900;10.774;2022-12-13T15:31:05;29.92;;;14.10;;
39502;SDS011;26970;49.900;10.774;2022-12-13T15:33:31;33.67;;;13.80;;
39502;SDS011;26970;49.900;10.774;2022-12-13T15:36:13;26.85;;;13.30;;
39502;SDS011;26970;49.900;10.774;2022-12-13T15:41:19;23.17;;;11.57;;
39502;SDS011;26970;49.900;10.774;2022-12-13T15:44:02;25.95;;;11.10;;
39502;SDS011;26970;49.900;10.774;2022-12-13T15:46:32;20.98;;;11.07;;
39502;SDS011;26970;49.900;10.774;2022-12-13T15:49:02;20.77;;;11.95;;
39502;SDS011;26970;49.900;10.774;2022-12-13T15:51:30;24.20;;;11.40;;
39502;SDS011;26970;49.900;10.774;2022-12-13T15:56:57;24.77;;;11.80;;
39502;SDS011;26970;49.900;10.774;2022-12-13T16:01:55;21.00;;;11.20;;
39502;SDS011;26970;49.900;10.774;2022-12-13T16:04:21;26.40;;;13.50;;
39502;SDS011;26970;49.900;10.774;2022-12-13T16:06:49;26.13;;;13.18;;
39502;SDS011;26970;49.900;10.774;2022-12-13T16:09:17;25.50;;;14.05;;
39502;SDS011;26970;49.900;10.774;2022-12-13T16:11:49;22.30;;;11.50;;
39502;SDS011;26970;49.900;10.774;2022-12-13T16:17:15;23.20;;;13.32;;
39502;SDS011;26970;49.900;10.774;2022-12-13T16:19:48;23.67;;;11.38;;
39502;SDS011;26970;49.900;10.774;2022-12-13T16:22:14;23.50;;;12.10;;
39502;SDS011;26970;49.900;10.774;2022-12-13T16:24:40;30.95;;;13.68;;
39502;SDS011;26970;49.900;10.774;2022-12-13T16:27:05;27.85;;;13.05;;
39502;SDS011;26970;49.900;10.774;2022-12-13T16:29:32;24.98;;;12.13;;
39502;SDS011;26970;49.900;10.774;2022-12-13T16:31:58;22.33;;;12.80;;
39502;SDS011;26970;49.900;10.774;2022-12-13T16:34:24;43.03;;;20.77;;
39502;SDS011;26970;49.900;10.774;2022-12-13T16:36:49;29.80;;;16.92;;
39502;SDS011;26970;49.900;10.774;2022-12-13T16:39:16;32.38;;;17.30;;
39502;SDS011;26970;49.900;10.774;2022-12-13T16:41:42;25.40;;;14.05;;